Terminal Aerodrome Forecast
Issued by NWS Jackson, MS

Home | Current Version | Previous Version | Text Only | Print | Product List | Glossary On
Versions: 1 2 3 4 5 6 7 8 9 10 11 12
000
FTUS44 KJAN 241120
TAFGLH
TAF
KGLH 241120Z 2412/2512 16014G24KT P6SM BKN025
     FM241800 17018G27KT P6SM BKN050 BKN250
     FM250000 16019G28KT P6SM VCSH BKN050 BKN250
     FM250300 16019G28KT 6SM SHRA VCTS BKN025CB OVC130
     FM250700 17019G32KT 5SM TSRA BKN025CB OVC090=

USA.gov is the U.S. government's official web portal to all federal, state and local government web resources and services.